createdAt,value
2016-09-26T00:00:30.459Z,1011.86
2016-09-26T00:01:30.438Z,1011.84
2016-09-26T00:02:30.416Z,1011.88
2016-09-26T00:03:30.394Z,1011.79
2016-09-26T00:04:30.371Z,1011.86
2016-09-26T00:05:30.351Z,1011.82
2016-09-26T00:06:30.329Z,1011.79
2016-09-26T00:07:30.307Z,1011.82
2016-09-26T00:08:30.286Z,1011.81
2016-09-26T00:09:30.263Z,1011.84
2016-09-26T00:10:30.242Z,1011.85
2016-09-26T00:11:30.220Z,1011.82
2016-09-26T00:12:30.200Z,1011.89
2016-09-26T00:13:30.176Z,1011.87
2016-09-26T00:14:30.155Z,1011.83
2016-09-26T00:15:30.132Z,1011.85
2016-09-26T00:16:30.111Z,1011.87
2016-09-26T00:17:30.089Z,1011.87
2016-09-26T00:18:30.068Z,1011.9
2016-09-26T00:19:30.044Z,1011.9
2016-09-26T00:20:30.024Z,1011.86
2016-09-26T00:21:30.003Z,1011.87
2016-09-26T00:22:29.978Z,1011.87
2016-09-26T00:23:29.958Z,1011.86
2016-09-26T00:24:29.935Z,1011.86
2016-09-26T00:25:29.915Z,1011.84
2016-09-26T00:26:30.191Z,1011.92
2016-09-26T00:27:29.869Z,1011.84
2016-09-26T00:28:29.849Z,1011.86
2016-09-26T00:29:29.826Z,1011.86
2016-09-26T00:30:29.803Z,1011.83
2016-09-26T00:31:29.783Z,1011.82
2016-09-26T00:32:29.760Z,1011.84
2016-09-26T00:33:29.738Z,1011.83
2016-09-26T00:34:29.716Z,1011.91
2016-09-26T00:35:29.693Z,1011.86
2016-09-26T00:36:29.672Z,1011.84
2016-09-26T00:37:29.651Z,1011.86
2016-09-26T00:38:29.629Z,1011.89
2016-09-26T00:39:29.606Z,1011.84
2016-09-26T00:40:29.585Z,1011.88
2016-09-26T00:41:29.562Z,1011.86
2016-09-26T00:42:29.541Z,1011.91
2016-09-26T00:43:29.518Z,1011.87
2016-09-26T00:44:29.497Z,1011.86
2016-09-26T00:45:29.474Z,1011.84
2016-09-26T00:46:29.452Z,1011.85
2016-09-26T00:47:29.441Z,1011.87
2016-09-26T00:48:29.407Z,1011.86
2016-09-26T00:49:29.386Z,1011.87
2016-09-26T00:50:29.371Z,1011.87
2016-09-26T00:51:29.342Z,1011.9
2016-09-26T00:52:29.321Z,1011.87
2016-09-26T00:53:29.299Z,1011.86
2016-09-26T00:54:29.277Z,1011.88
2016-09-26T00:55:29.255Z,1011.89
2016-09-26T00:56:29.232Z,1011.9
2016-09-26T00:57:29.211Z,1011.89
2016-09-26T00:58:29.189Z,1011.92
2016-09-26T00:59:29.169Z,1011.88
2016-09-26T01:00:29.146Z,1011.86
2016-09-26T01:01:29.124Z,1011.88
2016-09-26T01:02:29.102Z,1011.87
2016-09-26T01:03:29.080Z,1011.87
2016-09-26T01:04:29.058Z,1011.87
2016-09-26T01:05:29.039Z,1011.89
2016-09-26T01:06:29.014Z,1011.86
2016-09-26T01:07:28.993Z,1011.87
2016-09-26T01:08:28.970Z,1011.85
2016-09-26T01:09:28.947Z,1011.85
2016-09-26T01:10:28.926Z,1011.86
2016-09-26T01:11:28.907Z,1011.82
2016-09-26T01:12:28.882Z,1011.82
2016-09-26T01:13:28.860Z,1011.84
2016-09-26T01:14:28.837Z,1011.86
2016-09-26T01:15:28.816Z,1011.81
2016-09-26T01:16:28.795Z,1011.83
2016-09-26T01:17:28.772Z,1011.85
2016-09-26T01:18:28.750Z,1011.85
2016-09-26T01:19:28.728Z,1011.86
2016-09-26T01:20:28.706Z,1011.88
2016-09-26T01:21:28.683Z,1011.91
2016-09-26T01:22:28.661Z,1011.91
2016-09-26T01:23:28.640Z,1011.92
2016-09-26T01:24:28.618Z,1011.94
2016-09-26T01:25:28.597Z,1011.97
2016-09-26T01:26:28.624Z,1011.96
2016-09-26T01:27:28.552Z,1011.97
2016-09-26T01:28:28.531Z,1011.97
2016-09-26T01:29:28.509Z,1011.98
2016-09-26T01:30:28.488Z,1011.96
2016-09-26T01:31:28.465Z,1011.99
2016-09-26T01:32:28.442Z,1011.96
2016-09-26T01:33:28.420Z,1011.96
2016-09-26T01:34:28.399Z,1011.92
2016-09-26T01:35:28.375Z,1011.91
2016-09-26T01:36:28.360Z,1011.91
2016-09-26T01:37:28.332Z,1011.91
2016-09-26T01:38:28.311Z,1011.93
2016-09-26T01:39:28.287Z,1011.9
2016-09-26T01:40:28.265Z,1011.94
2016-09-26T01:41:28.245Z,1011.92
2016-09-26T01:42:28.222Z,1011.94
2016-09-26T01:43:28.199Z,1011.95
2016-09-26T01:44:28.180Z,1011.97
2016-09-26T01:45:28.158Z,1011.94
2016-09-26T01:46:28.134Z,1011.94
2016-09-26T01:47:28.113Z,1011.93
2016-09-26T01:48:28.091Z,1011.94
2016-09-26T01:49:28.070Z,1011.96
2016-09-26T01:50:28.048Z,1011.99
2016-09-26T01:51:28.026Z,1012.01
2016-09-26T01:52:28.004Z,1012.02
2016-09-26T01:53:27.981Z,1012.07
2016-09-26T01:54:27.960Z,1012.03
2016-09-26T01:55:27.937Z,1012.03
2016-09-26T01:56:27.915Z,1012.04
2016-09-26T01:57:27.893Z,1012.02
2016-09-26T01:58:27.872Z,1012.04
2016-09-26T01:59:27.850Z,1012.04
2016-09-26T02:00:27.829Z,1012.09
2016-09-26T02:01:27.805Z,1012.08
2016-09-26T02:02:27.785Z,1012.09
2016-09-26T02:03:27.763Z,1012.08
2016-09-26T02:04:27.740Z,1012.12
2016-09-26T02:05:27.718Z,1012.11
2016-09-26T02:06:27.697Z,1012.11
2016-09-26T02:07:27.676Z,1012.08
2016-09-26T02:08:27.652Z,1012.08
2016-09-26T02:09:27.631Z,1012.14
2016-09-26T02:10:27.609Z,1012.06
2016-09-26T02:11:27.589Z,1012.15
2016-09-26T02:12:27.573Z,1012.16
2016-09-26T02:13:27.545Z,1012.15
2016-09-26T02:14:27.522Z,1012.15
2016-09-26T02:15:27.499Z,1012.15
2016-09-26T02:16:27.478Z,1012.19
2016-09-26T02:17:27.457Z,1012.18
2016-09-26T02:18:27.435Z,1012.2
2016-09-26T02:19:27.411Z,1012.16
2016-09-26T02:20:27.391Z,1012.2
2016-09-26T02:21:27.369Z,1012.19
2016-09-26T02:22:27.347Z,1012.2
2016-09-26T02:23:27.324Z,1012.22
2016-09-26T02:24:27.302Z,1012.19
2016-09-26T02:25:27.282Z,1012.22
2016-09-26T02:26:27.260Z,1012.22
2016-09-26T02:27:27.237Z,1012.19
2016-09-26T02:28:27.216Z,1012.2
2016-09-26T02:29:27.193Z,1012.1
2016-09-26T02:30:27.179Z,1012.18
2016-09-26T02:31:27.151Z,1012.18
2016-09-26T02:32:27.129Z,1012.18
2016-09-26T02:33:27.108Z,1012.15
2016-09-26T02:34:27.086Z,1012.15
2016-09-26T02:35:27.064Z,1012.16
2016-09-26T02:36:27.042Z,1012.18
2016-09-26T02:37:27.020Z,1012.16
2016-09-26T02:38:26.998Z,1012.17
2016-09-26T02:39:26.977Z,1012.16
2016-09-26T02:40:26.955Z,1012.17
2016-09-26T02:41:26.933Z,1012.17
2016-09-26T02:42:26.912Z,1012.22
2016-09-26T02:43:26.890Z,1012.19
2016-09-26T02:44:26.867Z,1012.16
2016-09-26T02:45:26.846Z,1012.09
2016-09-26T02:46:26.825Z,1012.08
2016-09-26T02:47:26.802Z,1012.08
2016-09-26T02:48:26.781Z,1012.02
2016-09-26T02:49:26.759Z,1012.03
2016-09-26T02:50:26.737Z,1012.04
2016-09-26T02:51:26.715Z,1012.09
2016-09-26T02:52:26.693Z,1012.07
2016-09-26T02:53:26.672Z,1012.07
2016-09-26T02:54:26.651Z,1012.06
2016-09-26T02:55:26.627Z,1012.07
2016-09-26T02:56:26.606Z,1012.05
2016-09-26T02:57:26.585Z,1012.09
2016-09-26T02:58:26.563Z,1012.12
2016-09-26T02:59:26.541Z,1012.08
2016-09-26T03:00:26.524Z,1012.1
2016-09-26T03:01:26.497Z,1012.09
2016-09-26T03:02:26.477Z,1012.05
2016-09-26T03:03:26.453Z,1012.05
2016-09-26T03:04:26.433Z,1012.08
2016-09-26T03:05:26.409Z,1012.11
2016-09-26T03:06:26.386Z,1012.09
2016-09-26T03:07:26.367Z,1012.09
2016-09-26T03:08:26.344Z,1012.09
2016-09-26T03:09:26.323Z,1012.12
2016-09-26T03:10:26.300Z,1012.11
2016-09-26T03:11:26.279Z,1012.1
2016-09-26T03:12:26.258Z,1012.11
2016-09-26T03:13:26.237Z,1012.13
2016-09-26T03:14:26.213Z,1012.12
2016-09-26T03:15:26.191Z,1012.15
2016-09-26T03:16:26.171Z,1012.17
2016-09-26T03:17:26.147Z,1012.18
2016-09-26T03:18:26.126Z,1012.19
2016-09-26T03:19:26.104Z,1012.18
2016-09-26T03:20:26.083Z,1012.2
2016-09-26T03:21:26.061Z,1012.18
2016-09-26T03:22:26.038Z,1012.24
2016-09-26T03:23:26.022Z,1012.24
2016-09-26T03:24:25.996Z,1012.27
2016-09-26T03:25:25.973Z,1012.25
2016-09-26T03:26:25.952Z,1012.29
2016-09-26T03:27:25.930Z,1012.29
2016-09-26T03:28:25.908Z,1012.28
2016-09-26T03:29:25.885Z,1012.32
2016-09-26T03:30:25.863Z,1012.31
2016-09-26T03:31:25.844Z,1012.35
2016-09-26T03:32:25.820Z,1012.41
2016-09-26T03:33:25.798Z,1012.35
2016-09-26T03:34:25.776Z,1012.36
2016-09-26T03:35:25.754Z,1012.35
2016-09-26T03:36:25.733Z,1012.35
2016-09-26T03:37:25.710Z,1012.35
2016-09-26T03:38:25.690Z,1012.38
2016-09-26T03:39:25.666Z,1012.37
2016-09-26T03:40:25.645Z,1012.41
2016-09-26T03:41:25.623Z,1012.42
2016-09-26T03:42:25.600Z,1012.43
2016-09-26T03:43:25.578Z,1012.43
2016-09-26T03:44:25.556Z,1012.47
2016-09-26T03:45:25.540Z,1012.46
2016-09-26T03:46:25.513Z,1012.47
2016-09-26T03:47:25.492Z,1012.44
2016-09-26T03:48:25.470Z,1012.44
2016-09-26T03:49:25.447Z,1012.42
2016-09-26T03:50:25.425Z,1012.42
2016-09-26T03:51:25.403Z,1012.42
2016-09-26T03:52:25.380Z,1012.38
2016-09-26T03:53:25.361Z,1012.44
2016-09-26T03:54:25.337Z,1012.39
2016-09-26T03:55:25.314Z,1012.41
2016-09-26T03:56:25.293Z,1012.4
2016-09-26T03:57:25.273Z,1012.39
2016-09-26T03:58:25.250Z,1012.39
2016-09-26T03:59:25.228Z,1012.41
2016-09-26T04:00:25.205Z,1012.38
2016-09-26T04:01:25.183Z,1012.4
2016-09-26T04:02:25.163Z,1012.39
2016-09-26T04:03:25.140Z,1012.33
2016-09-26T04:04:25.119Z,1012.31
2016-09-26T04:05:25.097Z,1012.36
2016-09-26T04:06:25.073Z,1012.33
2016-09-26T04:07:25.052Z,1012.3
2016-09-26T04:08:25.030Z,1012.29
2016-09-26T04:09:25.008Z,1012.32
2016-09-26T04:10:24.989Z,1012.31
2016-09-26T04:11:24.966Z,1012.3
2016-09-26T04:12:24.950Z,1012.34
2016-09-26T04:13:24.922Z,1012.3
2016-09-26T04:14:24.900Z,1012.28
2016-09-26T04:15:24.876Z,1012.27
2016-09-26T04:16:24.860Z,1012.32
2016-09-26T04:17:24.833Z,1012.3
2016-09-26T04:18:24.811Z,1012.31
2016-09-26T04:19:24.791Z,1012.35
2016-09-26T04:20:24.766Z,1012.35
2016-09-26T04:21:24.744Z,1012.32
2016-09-26T04:22:24.722Z,1012.36
2016-09-26T04:23:24.699Z,1012.36
2016-09-26T04:24:24.677Z,1012.39
2016-09-26T04:25:24.656Z,1012.36
2016-09-26T04:26:24.633Z,1012.39
2016-09-26T04:27:24.611Z,1012.38
2016-09-26T04:28:24.590Z,1012.34
2016-09-26T04:29:24.569Z,1012.34
2016-09-26T04:30:24.542Z,1012.35
2016-09-26T04:31:24.521Z,1012.37
2016-09-26T04:32:24.499Z,1012.38
2016-09-26T04:33:24.477Z,1012.38
2016-09-26T04:34:24.456Z,1012.39
2016-09-26T04:35:24.431Z,1012.35
2016-09-26T04:36:24.411Z,1012.36
2016-09-26T04:37:24.388Z,1012.36
2016-09-26T04:38:24.363Z,1012.42
2016-09-26T04:39:24.343Z,1012.38
2016-09-26T04:40:24.322Z,1012.38
2016-09-26T04:41:24.296Z,1012.39
2016-09-26T04:42:24.275Z,1012.37
2016-09-26T04:43:24.263Z,1012.38
2016-09-26T04:44:24.240Z,1012.37
2016-09-26T04:45:24.206Z,1012.37
2016-09-26T04:46:24.184Z,1012.36
2016-09-26T04:47:24.163Z,1012.37
2016-09-26T04:48:24.142Z,1012.35
2016-09-26T04:49:24.118Z,1012.39
2016-09-26T04:50:24.095Z,1012.37
2016-09-26T04:51:24.072Z,1012.36
2016-09-26T04:52:24.048Z,1012.43
2016-09-26T04:53:24.028Z,1012.36
2016-09-26T04:54:24.004Z,1012.39
2016-09-26T04:55:23.980Z,1012.41
2016-09-26T04:56:23.957Z,1012.38
2016-09-26T04:57:23.936Z,1012.38
2016-09-26T04:58:23.911Z,1012.4
2016-09-26T04:59:23.890Z,1012.41
2016-09-26T05:00:23.865Z,1012.41
2016-09-26T05:01:23.844Z,1012.41
2016-09-26T05:02:23.821Z,1012.41
2016-09-26T05:03:23.798Z,1012.4
2016-09-26T05:04:23.776Z,1012.4
2016-09-26T05:05:23.753Z,1012.43
2016-09-26T05:06:23.731Z,1012.42
2016-09-26T05:07:23.707Z,1012.44
2016-09-26T05:08:23.685Z,1012.44
2016-09-26T05:09:23.662Z,1012.46
2016-09-26T05:10:23.639Z,1012.51
2016-09-26T05:11:23.615Z,1012.53
2016-09-26T05:12:23.593Z,1012.53
2016-09-26T05:13:23.570Z,1012.56
2016-09-26T05:14:23.547Z,1012.6
2016-09-26T05:15:23.523Z,1012.6
2016-09-26T05:16:23.501Z,1012.61
2016-09-26T05:17:23.478Z,1012.6
2016-09-26T05:18:23.453Z,1012.56
2016-09-26T05:19:23.432Z,1012.56
2016-09-26T05:20:23.408Z,1012.61
2016-09-26T05:21:23.385Z,1012.56
2016-09-26T05:22:23.367Z,1012.58
2016-09-26T05:23:23.339Z,1012.58
2016-09-26T05:24:23.317Z,1012.59
2016-09-26T05:25:23.294Z,1012.66
2016-09-26T05:26:23.272Z,1012.63
2016-09-26T05:27:23.245Z,1012.59
2016-09-26T05:28:23.224Z,1012.62
2016-09-26T05:29:23.199Z,1012.63
2016-09-26T05:30:23.176Z,1012.63
2016-09-26T05:31:23.153Z,1012.65
2016-09-26T05:32:23.130Z,1012.61
2016-09-26T05:33:23.105Z,1012.65
2016-09-26T05:34:23.082Z,1012.69
2016-09-26T05:35:23.060Z,1012.66
2016-09-26T05:36:23.036Z,1012.65
2016-09-26T05:37:23.012Z,1012.63
2016-09-26T05:38:22.989Z,1012.67
2016-09-26T05:39:22.966Z,1012.65
2016-09-26T05:40:22.942Z,1012.63
2016-09-26T05:41:22.919Z,1012.62
2016-09-26T05:42:22.895Z,1012.63
2016-09-26T05:43:22.874Z,1012.65
2016-09-26T05:44:22.850Z,1012.65
2016-09-26T05:45:22.825Z,1012.63
2016-09-26T05:46:22.803Z,1012.61
2016-09-26T05:47:22.778Z,1012.64
2016-09-26T05:48:22.754Z,1012.66
2016-09-26T05:49:22.731Z,1012.62
2016-09-26T05:50:22.708Z,1012.68
2016-09-26T05:51:22.684Z,1012.67
2016-09-26T05:52:22.661Z,1012.68
2016-09-26T05:53:22.638Z,1012.65
2016-09-26T05:54:22.613Z,1012.68
2016-09-26T05:55:22.591Z,1012.7
2016-09-26T05:56:22.567Z,1012.64
2016-09-26T05:57:22.543Z,1012.64
2016-09-26T05:58:22.519Z,1012.68
2016-09-26T05:59:22.496Z,1012.68
2016-09-26T06:00:22.474Z,1012.66
2016-09-26T06:01:22.449Z,1012.71
2016-09-26T06:02:22.424Z,1012.69
2016-09-26T06:03:22.400Z,1012.67
2016-09-26T06:04:22.377Z,1012.71
2016-09-26T06:05:22.353Z,1012.65
2016-09-26T06:06:22.332Z,1012.65
2016-09-26T06:07:22.307Z,1012.68
2016-09-26T06:08:22.284Z,1012.63
2016-09-26T06:09:22.260Z,1012.67
2016-09-26T06:10:22.237Z,1012.67
2016-09-26T06:11:22.214Z,1012.68
2016-09-26T06:12:22.190Z,1012.63
2016-09-26T06:13:22.167Z,1012.68
2016-09-26T06:14:22.143Z,1012.69
2016-09-26T06:15:22.119Z,1012.71
2016-09-26T06:16:22.096Z,1012.62
2016-09-26T06:17:22.072Z,1012.68
2016-09-26T06:18:22.049Z,1012.67
2016-09-26T06:19:22.025Z,1012.7
2016-09-26T06:20:22.003Z,1012.72
2016-09-26T06:21:21.978Z,1012.74
2016-09-26T06:22:21.955Z,1012.72
2016-09-26T06:23:21.939Z,1012.72
2016-09-26T06:24:21.908Z,1012.73
2016-09-26T06:25:21.885Z,1012.73
2016-09-26T06:26:21.860Z,1012.79
2016-09-26T06:27:21.837Z,1012.84
2016-09-26T06:28:21.815Z,1012.84
2016-09-26T06:29:21.792Z,1012.83
2016-09-26T06:30:21.768Z,1012.85
2016-09-26T06:31:21.744Z,1012.82
2016-09-26T06:32:21.726Z,1012.8
2016-09-26T06:33:21.704Z,1012.81
2016-09-26T06:34:21.674Z,1012.82
2016-09-26T06:35:21.650Z,1012.84
2016-09-26T06:36:21.628Z,1012.88
2016-09-26T06:37:21.605Z,1012.87
2016-09-26T06:38:21.580Z,1012.87
2016-09-26T06:39:21.558Z,1012.89
2016-09-26T06:40:21.533Z,1012.89
2016-09-26T06:41:21.510Z,1012.9
2016-09-26T06:42:21.487Z,1012.88
2016-09-26T06:43:21.463Z,1012.9
2016-09-26T06:44:21.440Z,1012.86
2016-09-26T06:45:21.417Z,1012.86
2016-09-26T06:46:21.392Z,1012.89
2016-09-26T06:47:21.371Z,1012.84
2016-09-26T06:48:21.347Z,1012.91
2016-09-26T06:49:21.323Z,1012.88
2016-09-26T06:50:21.300Z,1012.93
2016-09-26T06:51:21.277Z,1012.9
2016-09-26T06:52:21.254Z,1012.92
2016-09-26T06:53:21.231Z,1012.92
2016-09-26T06:54:21.207Z,1012.92
2016-09-26T06:55:21.184Z,1012.91
2016-09-26T06:56:21.161Z,1012.93
2016-09-26T06:57:21.137Z,1012.92
2016-09-26T06:58:21.115Z,1012.93
2016-09-26T06:59:21.093Z,1012.92
2016-09-26T07:00:21.067Z,1012.94
2016-09-26T07:01:21.045Z,1012.97
2016-09-26T07:02:21.023Z,1012.93
2016-09-26T07:03:21.000Z,1013.01
2016-09-26T07:04:20.975Z,1012.98
2016-09-26T07:05:20.953Z,1013
2016-09-26T07:06:20.930Z,1013
2016-09-26T07:07:20.907Z,1013
2016-09-26T07:08:20.882Z,1012.98
2016-09-26T07:09:20.860Z,1012.99
2016-09-26T07:10:20.836Z,1013.01
2016-09-26T07:11:20.813Z,1013.01
2016-09-26T07:12:20.790Z,1013
2016-09-26T07:13:20.768Z,1012.97
2016-09-26T07:14:20.745Z,1012.99
2016-09-26T07:15:20.720Z,1013.04
2016-09-26T07:16:20.698Z,1013.02
2016-09-26T07:17:20.676Z,1013.01
2016-09-26T07:18:20.654Z,1013.06
2016-09-26T07:19:20.631Z,1013.09
2016-09-26T07:20:20.607Z,1013.06
2016-09-26T07:21:20.585Z,1013.1
2016-09-26T07:22:20.562Z,1013.11
2016-09-26T07:23:20.539Z,1013.09
2016-09-26T07:24:20.516Z,1013.1
2016-09-26T07:25:20.493Z,1013.1
2016-09-26T07:26:20.469Z,1013.13
2016-09-26T07:27:20.447Z,1013.14
2016-09-26T07:28:20.426Z,1013.11
2016-09-26T07:29:20.400Z,1013.05
2016-09-26T07:30:20.378Z,1013.08
2016-09-26T07:31:20.356Z,1013.08
2016-09-26T07:32:20.335Z,1013.09
2016-09-26T07:33:20.310Z,1013.07
2016-09-26T07:34:20.287Z,1013.08
2016-09-26T07:35:20.264Z,1013.1
2016-09-26T07:36:20.242Z,1013.09
2016-09-26T07:37:20.219Z,1013.1
2016-09-26T07:38:20.197Z,1013.13
2016-09-26T07:39:20.174Z,1013.14
2016-09-26T07:40:20.150Z,1013.13
2016-09-26T07:41:20.128Z,1013.1
2016-09-26T07:42:20.106Z,1013.14
2016-09-26T07:43:20.084Z,1013.1
2016-09-26T07:44:20.060Z,1013.11
2016-09-26T07:45:20.038Z,1013.11
2016-09-26T07:46:20.015Z,1013.12
2016-09-26T07:47:19.998Z,1013.12
2016-09-26T07:48:19.971Z,1013.1
2016-09-26T07:49:19.948Z,1013.11
2016-09-26T07:50:19.926Z,1013.11
2016-09-26T07:51:19.903Z,1013.15
2016-09-26T07:52:19.880Z,1013.13
2016-09-26T07:53:19.858Z,1013.17
2016-09-26T07:54:19.835Z,1013.11
2016-09-26T07:55:19.811Z,1013.16
2016-09-26T07:56:19.791Z,1013.1
2016-09-26T07:57:19.778Z,1013.15
2016-09-26T07:58:19.746Z,1013.15
2016-09-26T07:59:19.723Z,1013.15
2016-09-26T08:00:19.701Z,1013.16
2016-09-26T08:01:19.706Z,1013.13
2016-09-26T08:02:19.656Z,1013.17
2016-09-26T08:03:19.633Z,1013.17
2016-09-26T08:04:19.639Z,1013.16
2016-09-26T08:05:19.590Z,1013.14
2016-09-26T08:06:19.565Z,1013.14
2016-09-26T08:07:19.545Z,1013.14
2016-09-26T08:08:19.523Z,1013.17
2016-09-26T08:09:19.501Z,1013.17
2016-09-26T08:10:19.478Z,1013.23
2016-09-26T08:11:19.456Z,1013.18
2016-09-26T08:12:19.433Z,1013.16
2016-09-26T08:13:19.411Z,1013.19
2016-09-26T08:14:19.389Z,1013.21
2016-09-26T08:15:19.367Z,1013.23
2016-09-26T08:16:19.345Z,1013.18
2016-09-26T08:17:19.325Z,1013.22
2016-09-26T08:18:19.301Z,1013.19
2016-09-26T08:19:19.280Z,1013.21
2016-09-26T08:20:19.256Z,1013.17
2016-09-26T08:21:19.234Z,1013.19
2016-09-26T08:22:19.213Z,1013.17
2016-09-26T08:23:19.191Z,1013.16
2016-09-26T08:24:19.168Z,1013.2
2016-09-26T08:25:19.146Z,1013.2
2016-09-26T08:26:19.125Z,1013.22
2016-09-26T08:27:19.104Z,1013.23
2016-09-26T08:28:19.080Z,1013.22
2016-09-26T08:29:19.059Z,1013.26
2016-09-26T08:30:19.038Z,1013.24
2016-09-26T08:31:19.016Z,1013.22
2016-09-26T08:32:18.993Z,1013.28
2016-09-26T08:33:18.971Z,1013.21
2016-09-26T08:34:18.951Z,1013.26
2016-09-26T08:35:18.928Z,1013.26
2016-09-26T08:36:18.906Z,1013.22
2016-09-26T08:37:18.884Z,1013.23
2016-09-26T08:38:18.863Z,1013.22
2016-09-26T08:39:18.841Z,1013.24
2016-09-26T08:40:18.820Z,1013.23
2016-09-26T08:41:18.797Z,1013.27
2016-09-26T08:42:18.775Z,1013.29
2016-09-26T08:43:18.753Z,1013.26
2016-09-26T08:44:18.731Z,1013.31
2016-09-26T08:45:18.712Z,1013.32
2016-09-26T08:46:18.795Z,1013.34
2016-09-26T08:47:18.668Z,1013.33
2016-09-26T08:48:18.647Z,1013.28
2016-09-26T08:49:18.625Z,1013.31
2016-09-26T08:50:18.601Z,1013.32
2016-09-26T08:51:18.583Z,1013.3
2016-09-26T08:52:18.564Z,1013.3
2016-09-26T08:53:18.545Z,1013.33
2016-09-26T08:54:18.518Z,1013.3
2016-09-26T08:55:18.496Z,1013.35
2016-09-26T08:56:18.476Z,1013.32
2016-09-26T08:57:18.453Z,1013.31
2016-09-26T08:58:19.033Z,1013.3
2016-09-26T08:59:18.412Z,1013.28
2016-09-26T09:00:18.390Z,1013.31
2016-09-26T09:01:18.368Z,1013.3
2016-09-26T09:02:18.347Z,1013.24
2016-09-26T09:03:18.326Z,1013.29
2016-09-26T09:04:18.306Z,1013.26
2016-09-26T09:05:18.283Z,1013.32
2016-09-26T09:06:18.263Z,1013.26
2016-09-26T09:07:18.241Z,1013.24
2016-09-26T09:08:18.219Z,1013.26
2016-09-26T09:09:18.199Z,1013.29
2016-09-26T09:10:18.176Z,1013.28
2016-09-26T09:11:18.158Z,1013.26
2016-09-26T09:12:18.135Z,1013.24
2016-09-26T09:13:18.115Z,1013.23
2016-09-26T09:14:18.121Z,1013.25
2016-09-26T09:15:18.073Z,1013.26
2016-09-26T09:16:18.051Z,1013.2
2016-09-26T09:17:18.028Z,1013.26
2016-09-26T09:18:18.010Z,1013.28
2016-09-26T09:19:17.988Z,1013.25
2016-09-26T09:20:17.968Z,1013.31
2016-09-26T09:21:17.947Z,1013.31
2016-09-26T09:22:17.925Z,1013.29
2016-09-26T09:23:17.905Z,1013.29
2016-09-26T09:24:17.883Z,1013.33
2016-09-26T09:25:17.863Z,1013.27
2016-09-26T09:26:17.841Z,1013.32
2016-09-26T09:27:17.821Z,1013.3
2016-09-26T09:28:17.802Z,1013.3
2016-09-26T09:29:17.780Z,1013.29
2016-09-26T09:30:17.758Z,1013.32
2016-09-26T09:31:17.739Z,1013.34
2016-09-26T09:32:17.719Z,1013.31
2016-09-26T09:33:17.699Z,1013.31
2016-09-26T09:34:17.677Z,1013.28
2016-09-26T09:35:17.656Z,1013.3
2016-09-26T09:36:17.636Z,1013.31
2016-09-26T09:37:17.616Z,1013.34
2016-09-26T09:38:17.595Z,1013.31
2016-09-26T09:39:17.575Z,1013.29
2016-09-26T09:40:17.554Z,1013.29
2016-09-26T09:41:17.533Z,1013.32
2016-09-26T09:42:17.513Z,1013.35
2016-09-26T09:43:17.494Z,1013.34
2016-09-26T09:44:17.475Z,1013.32
2016-09-26T09:45:17.453Z,1013.33
2016-09-26T09:46:17.433Z,1013.31
2016-09-26T09:47:17.414Z,1013.28
2016-09-26T09:48:17.391Z,1013.28
2016-09-26T09:49:17.373Z,1013.26
2016-09-26T09:50:17.352Z,1013.25
2016-09-26T09:51:17.332Z,1013.23
2016-09-26T09:52:17.312Z,1013.22
2016-09-26T09:53:17.293Z,1013.21
2016-09-26T09:54:17.272Z,1013.22
2016-09-26T09:55:17.252Z,1013.21
2016-09-26T09:56:17.232Z,1013.17
2016-09-26T09:57:17.212Z,1013.15
2016-09-26T09:58:17.192Z,1013.17
2016-09-26T09:59:17.172Z,1013.18
2016-09-26T10:00:17.154Z,1013.12
2016-09-26T10:01:17.133Z,1013.1
2016-09-26T10:02:17.115Z,1013.13
2016-09-26T10:03:17.095Z,1013.13
2016-09-26T10:04:17.075Z,1013.11
2016-09-26T10:05:17.057Z,1013.09
2016-09-26T10:06:17.037Z,1013.09
2016-09-26T10:07:17.019Z,1013.08
2016-09-26T10:08:16.999Z,1013.05
2016-09-26T10:09:17.009Z,1013.1
2016-09-26T10:10:16.960Z,1013.09
2016-09-26T10:11:16.943Z,1013.09
2016-09-26T10:12:16.923Z,1013.07
2016-09-26T10:13:16.905Z,1013.09
2016-09-26T10:14:16.887Z,1013.12
2016-09-26T10:15:16.868Z,1013.06
2016-09-26T10:16:16.849Z,1013.06
2016-09-26T10:17:16.832Z,1013.06
2016-09-26T10:18:16.812Z,1013.03
2016-09-26T10:19:16.794Z,1013.05
2016-09-26T10:20:16.777Z,1013.06
2016-09-26T10:21:16.758Z,1013.04
2016-09-26T10:22:16.739Z,1013.06
2016-09-26T10:23:16.723Z,1013.03
2016-09-26T10:24:16.704Z,1013.06
2016-09-26T10:25:16.685Z,1013.03
2016-09-26T10:26:16.681Z,1013.06
2016-09-26T10:27:16.650Z,1013.02
2016-09-26T10:28:16.634Z,1013.05
2016-09-26T10:29:16.617Z,1013.01
2016-09-26T10:30:16.601Z,1013.01
2016-09-26T10:31:16.582Z,1013.04
2016-09-26T10:32:16.563Z,1012.98
2016-09-26T10:33:16.546Z,1012.98
2016-09-26T10:34:16.529Z,1012.98
2016-09-26T10:35:16.512Z,1012.98
2016-09-26T10:36:16.495Z,1012.98
2016-09-26T10:37:16.478Z,1012.94
2016-09-26T10:38:16.460Z,1012.96
2016-09-26T10:39:16.444Z,1012.93
2016-09-26T10:40:16.428Z,1012.93
2016-09-26T10:41:16.413Z,1012.93
2016-09-26T10:42:16.399Z,1012.92
2016-09-26T10:43:16.375Z,1012.95
2016-09-26T10:44:16.358Z,1012.95
2016-09-26T10:45:16.342Z,1012.95
2016-09-26T10:46:16.327Z,1012.91
2016-09-26T10:47:16.309Z,1012.94
2016-09-26T10:48:16.293Z,1012.94
2016-09-26T10:49:16.282Z,1012.94
2016-09-26T10:50:16.262Z,1012.97
2016-09-26T10:51:16.245Z,1012.93
2016-09-26T10:52:16.228Z,1012.99
2016-09-26T10:53:16.213Z,1012.93
2016-09-26T10:54:16.197Z,1012.96
2016-09-26T10:55:16.180Z,1012.91
2016-09-26T10:56:16.165Z,1012.95
2016-09-26T10:57:16.149Z,1012.91
2016-09-26T10:58:16.136Z,1012.97
2016-09-26T10:59:16.117Z,1012.92
2016-09-26T11:00:16.103Z,1012.93
2016-09-26T11:01:16.085Z,1012.92
2016-09-26T11:02:16.070Z,1012.97
2016-09-26T11:03:16.054Z,1012.98
2016-09-26T11:04:16.040Z,1012.98
2016-09-26T11:05:16.022Z,1012.96
2016-09-26T11:06:16.006Z,1013
2016-09-26T11:07:15.991Z,1013
2016-09-26T11:08:15.978Z,1012.93
2016-09-26T11:09:15.959Z,1012.95
2016-09-26T11:10:15.943Z,1012.94
2016-09-26T11:11:15.929Z,1012.93
2016-09-26T11:12:15.913Z,1012.92
2016-09-26T11:13:15.898Z,1012.92
2016-09-26T11:14:15.882Z,1012.87
2016-09-26T11:15:15.866Z,1012.91
2016-09-26T11:16:15.850Z,1012.9
2016-09-26T11:17:15.833Z,1012.88
2016-09-26T11:18:15.820Z,1012.86
2016-09-26T11:19:15.803Z,1012.88
2016-09-26T11:20:15.786Z,1012.89
2016-09-26T11:21:15.771Z,1012.87
2016-09-26T11:22:15.755Z,1012.88
2016-09-26T11:23:15.737Z,1012.88
2016-09-26T11:24:15.723Z,1012.88
2016-09-26T11:25:15.706Z,1012.84
2016-09-26T11:26:15.689Z,1012.86
2016-09-26T11:27:15.675Z,1012.86
2016-09-26T11:28:15.657Z,1012.87
2016-09-26T11:29:15.640Z,1012.84
2016-09-26T11:30:15.624Z,1012.77
2016-09-26T11:31:15.607Z,1012.78
2016-09-26T11:32:15.591Z,1012.77
2016-09-26T11:33:15.573Z,1012.77
2016-09-26T11:34:15.556Z,1012.79
2016-09-26T11:35:15.540Z,1012.79
2016-09-26T11:36:15.524Z,1012.79
2016-09-26T11:37:15.506Z,1012.81
2016-09-26T11:38:15.488Z,1012.77
2016-09-26T11:39:15.473Z,1012.78
2016-09-26T11:40:15.456Z,1012.76
2016-09-26T11:41:15.438Z,1012.73
2016-09-26T11:42:15.420Z,1012.8
2016-09-26T11:43:15.403Z,1012.79
2016-09-26T11:44:15.386Z,1012.8
2016-09-26T11:45:15.368Z,1012.81
2016-09-26T11:46:15.351Z,1012.76
2016-09-26T11:47:15.332Z,1012.79
2016-09-26T11:48:15.317Z,1012.75
2016-09-26T11:49:15.299Z,1012.77
2016-09-26T11:50:15.282Z,1012.77
2016-09-26T11:51:15.265Z,1012.76
2016-09-26T11:52:15.246Z,1012.77
2016-09-26T11:53:15.228Z,1012.74
2016-09-26T11:54:15.212Z,1012.76
2016-09-26T11:55:15.194Z,1012.78
2016-09-26T11:56:15.180Z,1012.74
2016-09-26T11:57:15.159Z,1012.7
2016-09-26T11:58:15.141Z,1012.71
2016-09-26T11:59:15.126Z,1012.72
2016-09-26T12:00:15.107Z,1012.68
2016-09-26T12:01:15.089Z,1012.66
2016-09-26T12:02:15.072Z,1012.64
2016-09-26T12:03:15.054Z,1012.61
2016-09-26T12:04:15.036Z,1012.61
2016-09-26T12:05:15.021Z,1012.63
2016-09-26T12:06:15.003Z,1012.64
2016-09-26T12:07:14.989Z,1012.61
2016-09-26T12:08:14.967Z,1012.61